createdAt,value
2023-02-11T00:01:11.966Z,100.00
2023-02-11T00:03:39.075Z,100.00
2023-02-11T00:06:11.859Z,100.00
2023-02-11T00:08:40.083Z,100.00
2023-02-11T00:11:07.807Z,100.00
2023-02-11T00:13:34.616Z,100.00
2023-02-11T00:16:11.424Z,100.00
2023-02-11T00:18:38.978Z,100.00
2023-02-11T00:21:08.760Z,100.00
2023-02-11T00:23:36.914Z,100.00
2023-02-11T00:26:05.470Z,100.00
2023-02-11T00:28:32.766Z,100.00
2023-02-11T00:31:01.779Z,100.00
2023-02-11T00:33:28.685Z,100.00
2023-02-11T00:35:56.304Z,100.00
2023-02-11T00:38:23.146Z,100.00
2023-02-11T00:40:49.983Z,100.00
2023-02-11T00:43:16.760Z,100.00
2023-02-11T00:45:43.810Z,100.00
2023-02-11T00:48:10.695Z,100.00
2023-02-11T00:50:37.470Z,100.00
2023-02-11T00:53:04.383Z,100.00
2023-02-11T00:55:31.502Z,100.00
2023-02-11T00:58:00.156Z,100.00
2023-02-11T01:00:29.533Z,100.00
2023-02-11T01:02:56.626Z,100.00
2023-02-11T01:05:25.143Z,100.00
2023-02-11T01:07:52.274Z,100.00
2023-02-11T01:10:19.291Z,100.00
2023-02-11T01:12:46.204Z,100.00
2023-02-11T01:15:16.383Z,100.00
2023-02-11T01:17:43.802Z,100.00
2023-02-11T01:20:18.857Z,100.00
2023-02-11T01:22:45.568Z,100.00
2023-02-11T01:25:13.345Z,100.00
2023-02-11T01:27:40.432Z,100.00
2023-02-11T01:30:12.057Z,100.00
2023-02-11T01:32:38.967Z,100.00
2023-02-11T01:35:06.570Z,100.00
2023-02-11T01:37:37.119Z,100.00
2023-02-11T01:40:08.005Z,100.00
2023-02-11T01:42:34.997Z,100.00
2023-02-11T01:45:47.249Z,100.00
2023-02-11T01:48:26.770Z,100.00
2023-02-11T01:51:10.747Z,100.00
2023-02-11T01:53:57.790Z,100.00
2023-02-11T01:56:45.214Z,100.00
2023-02-11T01:59:20.044Z,100.00
2023-02-11T02:01:57.165Z,100.00
2023-02-11T02:04:31.795Z,100.00
2023-02-11T02:07:09.017Z,100.00
2023-02-11T02:09:42.918Z,100.00
2023-02-11T02:12:10.118Z,100.00
2023-02-11T02:14:42.051Z,100.00
2023-02-11T02:17:26.880Z,100.00
2023-02-11T02:20:12.020Z,100.00
2023-02-11T02:23:07.746Z,100.00
2023-02-11T02:26:15.362Z,100.00
2023-02-11T02:29:20.322Z,100.00
2023-02-11T02:32:22.316Z,100.00
2023-02-11T02:35:23.024Z,100.00
2023-02-11T02:38:13.992Z,100.00
2023-02-11T02:41:04.147Z,100.00
2023-02-11T02:43:32.440Z,100.00
2023-02-11T02:46:23.270Z,100.00
2023-02-11T02:48:52.792Z,100.00
2023-02-11T02:52:17.059Z,100.00
2023-02-11T02:54:53.946Z,100.00
2023-02-11T02:57:55.894Z,100.00
2023-02-11T03:00:37.528Z,100.00
2023-02-11T03:03:41.557Z,100.00
2023-02-11T03:06:29.866Z,100.00
2023-02-11T03:09:41.594Z,100.00
2023-02-11T03:12:10.644Z,100.00
2023-02-11T03:14:39.242Z,100.00
2023-02-11T03:17:08.279Z,100.00
2023-02-11T03:19:40.518Z,100.00
2023-02-11T03:22:27.640Z,100.00
2023-02-11T03:24:56.494Z,100.00
2023-02-11T03:27:34.454Z,100.00
2023-02-11T03:30:36.069Z,100.00
2023-02-11T03:33:34.913Z,100.00
2023-02-11T03:36:09.346Z,100.00
2023-02-11T03:38:48.771Z,100.00
2023-02-11T03:41:18.369Z,100.00
2023-02-11T03:43:51.685Z,100.00
2023-02-11T03:46:22.087Z,100.00
2023-02-11T03:48:54.887Z,100.00
2023-02-11T03:51:25.088Z,100.00
2023-02-11T03:53:55.491Z,100.00
2023-02-11T03:56:27.522Z,100.00
2023-02-11T03:58:54.368Z,100.00
2023-02-11T04:01:21.861Z,100.00
2023-02-11T04:03:48.733Z,100.00
2023-02-11T04:06:15.534Z,100.00
2023-02-11T04:08:42.306Z,100.00
2023-02-11T04:11:09.406Z,100.00
2023-02-11T04:13:36.457Z,100.00
2023-02-11T04:16:03.348Z,100.00
2023-02-11T04:18:30.193Z,100.00
2023-02-11T04:20:56.956Z,100.00
2023-02-11T04:23:23.745Z,100.00
2023-02-11T04:25:51.067Z,100.00
2023-02-11T04:28:18.184Z,100.00
2023-02-11T04:30:45.064Z,100.00
2023-02-11T04:33:11.943Z,100.00
2023-02-11T04:35:38.865Z,100.00
2023-02-11T04:38:05.653Z,100.00
2023-02-11T04:40:36.826Z,100.00
2023-02-11T04:43:03.742Z,100.00
2023-02-11T04:45:30.546Z,100.00
2023-02-11T04:47:57.378Z,100.00
2023-02-11T04:50:24.210Z,100.00
2023-02-11T04:52:51.178Z,100.00
2023-02-11T04:55:18.293Z,100.00
2023-02-11T04:57:45.056Z,100.00
2023-02-11T05:00:12.696Z,100.00
2023-02-11T05:02:39.492Z,100.00
2023-02-11T05:05:06.644Z,100.00
2023-02-11T05:07:33.675Z,100.00
2023-02-11T05:10:00.566Z,100.00
2023-02-11T05:12:27.313Z,100.00
2023-02-11T05:14:54.106Z,100.00
2023-02-11T05:17:20.994Z,100.00
2023-02-11T05:19:47.784Z,100.00
2023-02-11T05:22:14.728Z,100.00
2023-02-11T05:24:41.699Z,100.00
2023-02-11T05:27:08.632Z,100.00
2023-02-11T05:29:35.582Z,100.00
2023-02-11T05:32:02.736Z,100.00
2023-02-11T05:34:29.535Z,100.00
2023-02-11T05:36:56.416Z,100.00
2023-02-11T05:39:23.242Z,100.00
2023-02-11T05:41:50.030Z,100.00
2023-02-11T05:44:16.881Z,100.00
2023-02-11T05:46:44.105Z,100.00
2023-02-11T05:49:10.930Z,100.00
2023-02-11T05:51:37.801Z,100.00
2023-02-11T05:54:04.921Z,100.00
2023-02-11T05:56:31.675Z,100.00
2023-02-11T05:59:00.173Z,100.00
2023-02-11T06:01:27.192Z,100.00
2023-02-11T06:03:54.056Z,100.00
2023-02-11T06:06:21.264Z,100.00
2023-02-11T06:08:48.094Z,100.00
2023-02-11T06:11:16.805Z,100.00
2023-02-11T06:13:43.922Z,100.00
2023-02-11T06:16:10.930Z,100.00
2023-02-11T06:18:37.810Z,100.00
2023-02-11T06:21:10.117Z,100.00
2023-02-11T06:23:38.175Z,100.00
2023-02-11T06:26:08.993Z,100.00
2023-02-11T06:28:36.401Z,100.00
2023-02-11T06:31:08.189Z,100.00
2023-02-11T06:33:35.954Z,100.00
2023-02-11T06:36:04.452Z,100.00
2023-02-11T06:38:31.323Z,100.00
2023-02-11T06:40:58.118Z,100.00
2023-02-11T06:43:24.888Z,100.00
2023-02-11T06:45:56.247Z,100.00
2023-02-11T06:48:23.841Z,100.00
2023-02-11T06:50:50.873Z,100.00
2023-02-11T06:53:17.790Z,100.00
2023-02-11T06:55:44.624Z,100.00
2023-02-11T06:58:11.496Z,100.00
2023-02-11T07:00:38.544Z,100.00
2023-02-11T07:03:05.431Z,100.00
2023-02-11T07:05:34.377Z,100.00
2023-02-11T07:08:01.302Z,100.00
2023-02-11T07:10:28.455Z,100.00
2023-02-11T07:12:58.391Z,100.00
2023-02-11T07:15:25.700Z,100.00
2023-02-11T07:17:52.523Z,100.00
2023-02-11T07:20:19.531Z,100.00
2023-02-11T07:22:46.354Z,100.00
2023-02-11T07:25:13.140Z,100.00
2023-02-11T07:27:40.216Z,100.00
2023-02-11T07:30:07.674Z,100.00
2023-02-11T07:32:34.502Z,100.00
2023-02-11T07:35:01.563Z,100.00
2023-02-11T07:37:28.610Z,100.00
2023-02-11T07:39:55.437Z,100.00
2023-02-11T07:42:22.240Z,100.00
2023-02-11T07:44:50.567Z,100.00
2023-02-11T07:47:17.577Z,100.00
2023-02-11T07:49:44.366Z,100.00
2023-02-11T07:52:11.202Z,100.00
2023-02-11T07:54:37.987Z,100.00
2023-02-11T07:57:04.790Z,100.00
2023-02-11T07:59:31.718Z,100.00
2023-02-11T08:01:58.627Z,100.00
2023-02-11T08:04:25.561Z,100.00
2023-02-11T08:06:56.562Z,100.00
2023-02-11T08:09:25.195Z,100.00
2023-02-11T08:11:51.984Z,100.00
2023-02-11T08:14:18.857Z,100.00
2023-02-11T08:16:45.780Z,100.00
2023-02-11T08:19:16.591Z,100.00
2023-02-11T08:21:44.244Z,100.00
2023-02-11T08:24:11.237Z,100.00
2023-02-11T08:26:38.814Z,100.00
2023-02-11T08:29:13.868Z,100.00
2023-02-11T08:31:43.409Z,100.00
2023-02-11T08:34:11.942Z,100.00
2023-02-11T08:36:40.520Z,100.00
2023-02-11T08:39:19.511Z,100.00
2023-02-11T08:41:52.959Z,100.00
2023-02-11T08:44:21.659Z,100.00
2023-02-11T08:46:49.705Z,100.00
2023-02-11T08:49:16.628Z,100.00
2023-02-11T08:51:44.176Z,100.00
2023-02-11T08:54:11.404Z,100.00
2023-02-11T08:56:39.239Z,100.00
2023-02-11T08:59:07.402Z,100.00
2023-02-11T09:01:34.650Z,100.00
2023-02-11T09:04:03.058Z,100.00
2023-02-11T09:06:30.332Z,100.00
2023-02-11T09:08:58.418Z,100.00
2023-02-11T09:11:30.485Z,100.00
2023-02-11T09:13:57.351Z,100.00
2023-02-11T09:16:28.205Z,100.00
2023-02-11T09:18:58.918Z,100.00
2023-02-11T09:21:26.241Z,100.00
2023-02-11T09:23:54.009Z,100.00
2023-02-11T09:26:28.036Z,100.00
2023-02-11T09:28:55.058Z,100.00
2023-02-11T09:31:25.243Z,100.00
2023-02-11T09:33:56.890Z,100.00
2023-02-11T09:36:29.043Z,100.00
2023-02-11T09:38:58.560Z,100.00
2023-02-11T09:41:56.185Z,100.00
2023-02-11T09:44:27.171Z,100.00
2023-02-11T09:47:02.301Z,100.00
2023-02-11T09:49:48.870Z,100.00
2023-02-11T09:52:45.221Z,100.00
2023-02-11T09:55:27.184Z,100.00
2023-02-11T09:57:54.659Z,100.00
2023-02-11T10:00:38.411Z,100.00
2023-02-11T10:03:26.460Z,100.00
2023-02-11T10:06:32.864Z,100.00
2023-02-11T10:09:08.498Z,100.00
2023-02-11T10:11:50.863Z,100.00
2023-02-11T10:14:42.056Z,98.64
2023-02-11T10:17:36.958Z,97.67
2023-02-11T10:20:25.020Z,97.66
2023-02-11T10:22:59.479Z,96.92
2023-02-11T10:25:45.549Z,97.41
2023-02-11T10:28:40.418Z,96.08
2023-02-11T10:31:18.924Z,96.45
2023-02-11T10:34:04.512Z,94.78
2023-02-11T10:36:41.967Z,94.58
2023-02-11T10:39:22.187Z,94.37
2023-02-11T10:42:05.613Z,94.70
2023-02-11T10:44:38.324Z,93.93
2023-02-11T10:47:17.096Z,92.63
2023-02-11T10:49:47.661Z,92.88
2023-02-11T10:52:31.375Z,92.36
2023-02-11T10:55:01.507Z,92.14
2023-02-11T10:57:36.086Z,91.55
2023-02-11T11:00:41.385Z,90.50
2023-02-11T11:03:22.375Z,89.92
2023-02-11T11:05:58.753Z,90.42
2023-02-11T11:08:49.500Z,89.30
2023-02-11T11:11:18.493Z,88.88
2023-02-11T11:13:54.330Z,88.12
2023-02-11T11:16:39.347Z,88.63
2023-02-11T11:19:09.222Z,88.50
2023-02-11T11:21:46.284Z,88.64
2023-02-11T11:24:32.183Z,87.38
2023-02-11T11:27:03.768Z,86.46
2023-02-11T11:29:45.250Z,87.68
2023-02-11T11:32:40.369Z,85.54
2023-02-11T11:35:25.226Z,84.92
2023-02-11T11:38:02.041Z,84.59
2023-02-11T11:40:32.245Z,85.31
2023-02-11T11:43:23.041Z,84.08
2023-02-11T11:46:00.246Z,84.99
2023-02-11T11:48:43.498Z,84.68
2023-02-11T11:51:12.256Z,85.03
2023-02-11T11:53:52.236Z,83.91
2023-02-11T11:56:25.496Z,82.39
2023-02-11T11:58:54.707Z,82.16
2023-02-11T12:01:43.299Z,78.75
2023-02-11T12:04:52.939Z,78.58
2023-02-11T12:07:37.899Z,78.42
2023-02-11T12:10:52.327Z,77.89
2023-02-11T12:14:02.826Z,76.69
2023-02-11T12:16:45.712Z,76.93
2023-02-11T12:19:31.611Z,76.14
2023-02-11T12:22:17.138Z,75.26
2023-02-11T12:25:09.042Z,76.24
2023-02-11T12:28:23.557Z,76.80
2023-02-11T12:31:30.552Z,77.44
2023-02-11T12:34:24.440Z,76.80
2023-02-11T12:37:07.992Z,77.44
2023-02-11T12:40:04.630Z,76.85
2023-02-11T12:43:18.655Z,75.74
2023-02-11T12:46:39.913Z,76.26
2023-02-11T12:49:31.216Z,74.50
2023-02-11T12:52:09.824Z,74.27
2023-02-11T12:54:58.776Z,72.60
2023-02-11T12:57:28.872Z,73.85
2023-02-11T13:00:08.197Z,73.85
2023-02-11T13:03:05.335Z,74.50
2023-02-11T13:05:46.344Z,75.11
2023-02-11T13:08:34.284Z,74.05
2023-02-11T13:11:14.335Z,74.17
2023-02-11T13:13:55.590Z,74.91
2023-02-11T13:16:41.753Z,75.04
2023-02-11T13:19:29.500Z,75.57
2023-02-11T13:22:30.011Z,75.84
2023-02-11T13:25:07.196Z,75.80
2023-02-11T13:28:00.583Z,75.39
2023-02-11T13:30:36.917Z,76.19
2023-02-11T13:33:14.757Z,76.36
2023-02-11T13:35:57.061Z,76.58
2023-02-11T13:38:33.419Z,76.01
2023-02-11T13:41:06.255Z,76.12
2023-02-11T13:43:35.989Z,76.03
2023-02-11T13:46:06.969Z,75.84
2023-02-11T13:48:46.509Z,76.11
2023-02-11T13:51:17.211Z,76.52
2023-02-11T13:53:52.357Z,76.83
2023-02-11T13:56:27.894Z,77.06
2023-02-11T13:58:54.922Z,77.26
2023-02-11T14:01:43.199Z,77.00
2023-02-11T14:04:44.101Z,77.24
2023-02-11T14:07:50.632Z,78.03
2023-02-11T14:10:42.447Z,77.52
2023-02-11T14:13:33.382Z,77.81
2023-02-11T14:16:09.933Z,78.10
2023-02-11T14:18:45.964Z,77.34
2023-02-11T14:21:28.099Z,77.74
2023-02-11T14:24:14.776Z,77.47
2023-02-11T14:26:54.924Z,77.67
2023-02-11T14:29:37.040Z,77.93
2023-02-11T14:32:22.419Z,78.08
2023-02-11T14:34:51.782Z,78.37
2023-02-11T14:37:24.047Z,77.91
2023-02-11T14:40:19.289Z,78.54
2023-02-11T14:42:46.175Z,77.75
2023-02-11T14:45:23.144Z,77.79
2023-02-11T14:48:08.515Z,77.33
2023-02-11T14:50:43.607Z,76.90
2023-02-11T14:53:18.677Z,76.98
2023-02-11T14:55:48.593Z,78.18
2023-02-11T14:58:19.246Z,77.97
2023-02-11T15:01:01.923Z,78.37
2023-02-11T15:03:33.474Z,78.57
2023-02-11T15:06:07.642Z,78.56
2023-02-11T15:08:38.520Z,78.75
2023-02-11T15:11:12.786Z,79.29
2023-02-11T15:13:44.679Z,79.68
2023-02-11T15:16:15.948Z,80.01
2023-02-11T15:18:52.362Z,80.66
2023-02-11T15:21:32.833Z,80.91
2023-02-11T15:24:21.237Z,80.66
2023-02-11T15:27:22.891Z,81.11
2023-02-11T15:29:50.920Z,80.98
2023-02-11T15:32:25.281Z,80.99
2023-02-11T15:34:54.267Z,80.79
2023-02-11T15:37:32.509Z,80.97
2023-02-11T15:40:22.942Z,81.19
2023-02-11T15:43:07.974Z,81.14
2023-02-11T15:45:57.221Z,80.93
2023-02-11T15:48:42.731Z,81.21
2023-02-11T15:51:35.630Z,81.55
2023-02-11T15:54:06.524Z,81.55
2023-02-11T15:56:43.445Z,80.64
2023-02-11T15:59:19.169Z,80.72
2023-02-11T16:01:47.881Z,80.74
2023-02-11T16:04:22.110Z,80.92
2023-02-11T16:06:50.979Z,80.77
2023-02-11T16:09:29.865Z,81.10
2023-02-11T16:12:00.239Z,80.77
2023-02-11T16:14:34.510Z,80.85
2023-02-11T16:17:23.683Z,80.99
2023-02-11T16:19:53.430Z,80.03
2023-02-11T16:22:27.971Z,79.74
2023-02-11T16:24:59.345Z,79.79
2023-02-11T16:27:32.706Z,79.61
2023-02-11T16:29:59.670Z,79.08
2023-02-11T16:32:29.053Z,78.94
2023-02-11T16:35:00.901Z,79.03
2023-02-11T16:37:28.364Z,78.90
2023-02-11T16:39:56.700Z,79.36
2023-02-11T16:42:23.626Z,79.05
2023-02-11T16:44:50.874Z,79.28
2023-02-11T16:47:26.090Z,79.63
2023-02-11T16:49:53.597Z,80.00
2023-02-11T16:52:22.215Z,79.97
2023-02-11T16:54:49.305Z,79.89
2023-02-11T16:57:21.963Z,80.18
2023-02-11T16:59:49.791Z,80.30
2023-02-11T17:02:28.248Z,80.25
2023-02-11T17:04:59.258Z,80.58
2023-02-11T17:07:26.461Z,80.85
2023-02-11T17:09:53.263Z,81.24
2023-02-11T17:12:21.324Z,81.52
2023-02-11T17:14:48.387Z,81.61
2023-02-11T17:17:16.564Z,81.59
2023-02-11T17:19:43.899Z,81.51
2023-02-11T17:22:12.264Z,81.33
2023-02-11T17:24:39.047Z,81.35
2023-02-11T17:27:05.837Z,81.60
2023-02-11T17:29:32.623Z,82.04
2023-02-11T17:31:59.532Z,81.98
2023-02-11T17:34:26.546Z,81.92
2023-02-11T17:36:53.318Z,81.94
2023-02-11T17:39:21.352Z,81.73
2023-02-11T17:41:48.503Z,81.93
2023-02-11T17:44:16.599Z,82.12
2023-02-11T17:46:44.415Z,82.44
2023-02-11T17:49:12.031Z,82.21
2023-02-11T17:51:40.189Z,82.37
2023-02-11T17:54:17.042Z,82.49
2023-02-11T17:56:45.104Z,82.75
2023-02-11T17:59:13.554Z,82.96
2023-02-11T18:01:42.713Z,83.03
2023-02-11T18:04:15.180Z,83.17
2023-02-11T18:06:42.274Z,83.41
2023-02-11T18:09:09.861Z,83.44
2023-02-11T18:11:39.262Z,83.92
2023-02-11T18:14:08.583Z,83.96
2023-02-11T18:16:39.202Z,83.99
2023-02-11T18:19:07.925Z,84.15
2023-02-11T18:21:35.404Z,84.26
2023-02-11T18:24:06.370Z,84.46
2023-02-11T18:26:34.186Z,84.52
2023-02-11T18:29:01.566Z,84.33
2023-02-11T18:31:28.882Z,84.50
2023-02-11T18:33:56.444Z,84.70
2023-02-11T18:36:24.111Z,84.89
2023-02-11T18:38:52.905Z,85.09
2023-02-11T18:41:19.928Z,85.12
2023-02-11T18:43:46.963Z,85.69
2023-02-11T18:46:15.758Z,85.46
2023-02-11T18:48:44.951Z,85.59
2023-02-11T18:51:21.208Z,85.73
2023-02-11T18:53:48.360Z,85.65
2023-02-11T18:56:19.301Z,85.96
2023-02-11T18:58:46.907Z,85.73
2023-02-11T19:01:23.240Z,86.25
2023-02-11T19:03:50.753Z,86.21
2023-02-11T19:06:25.008Z,86.10
2023-02-11T19:08:59.801Z,86.34
2023-02-11T19:11:47.277Z,86.85
2023-02-11T19:14:18.122Z,86.47
2023-02-11T19:16:50.982Z,86.25
2023-02-11T19:19:19.053Z,86.49
2023-02-11T19:21:47.652Z,86.70
2023-02-11T19:24:19.163Z,86.58
2023-02-11T19:26:48.004Z,86.58
2023-02-11T19:29:15.163Z,86.61
2023-02-11T19:31:43.623Z,86.84
2023-02-11T19:34:14.211Z,87.05
2023-02-11T19:36:41.401Z,87.01
2023-02-11T19:39:08.696Z,87.12
2023-02-11T19:41:35.666Z,87.25
2023-02-11T19:44:04.649Z,87.54
2023-02-11T19:46:36.775Z,87.52
2023-02-11T19:49:04.895Z,87.71
2023-02-11T19:51:33.898Z,87.68
2023-02-11T19:54:01.093Z,87.62
2023-02-11T19:56:29.758Z,87.69
2023-02-11T19:58:57.272Z,88.03
2023-02-11T20:01:26.123Z,87.95
2023-02-11T20:03:55.332Z,88.18
2023-02-11T20:06:26.736Z,87.87
2023-02-11T20:09:02.900Z,88.19
2023-02-11T20:11:31.927Z,88.05
2023-02-11T20:13:58.910Z,87.91
2023-02-11T20:16:44.610Z,88.07
2023-02-11T20:19:18.365Z,88.58
2023-02-11T20:21:47.833Z,88.59
2023-02-11T20:24:17.374Z,88.75
2023-02-11T20:26:45.920Z,88.58
2023-02-11T20:29:12.868Z,89.03
2023-02-11T20:31:39.736Z,88.64
2023-02-11T20:34:06.570Z,88.92
2023-02-11T20:36:35.802Z,89.22
2023-02-11T20:39:05.227Z,88.81
2023-02-11T20:41:35.604Z,88.92
2023-02-11T20:44:07.006Z,89.03
2023-02-11T20:46:35.368Z,88.91
2023-02-11T20:49:03.631Z,88.76
2023-02-11T20:51:33.718Z,88.97
2023-02-11T20:54:01.588Z,88.93
2023-02-11T20:56:31.909Z,88.97
2023-02-11T20:59:00.516Z,88.84
2023-02-11T21:01:32.362Z,88.80
2023-02-11T21:04:06.811Z,88.90
2023-02-11T21:06:42.114Z,88.45
2023-02-11T21:09:13.769Z,88.80
2023-02-11T21:11:41.793Z,88.88
2023-02-11T21:14:10.137Z,88.45
2023-02-11T21:16:37.098Z,88.71
2023-02-11T21:19:04.332Z,88.56
2023-02-11T21:21:31.724Z,88.55
2023-02-11T21:23:58.827Z,88.54
2023-02-11T21:26:25.996Z,88.48
2023-02-11T21:28:55.213Z,88.46
2023-02-11T21:31:30.389Z,88.35
2023-02-11T21:33:59.596Z,88.61
2023-02-11T21:36:28.989Z,88.27
2023-02-11T21:38:56.629Z,88.40
2023-02-11T21:41:25.004Z,88.35
2023-02-11T21:43:52.927Z,88.47
2023-02-11T21:46:21.145Z,88.32
2023-02-11T21:48:48.960Z,88.09
2023-02-11T21:51:23.182Z,88.27
2023-02-11T21:53:59.814Z,87.96
2023-02-11T21:56:28.379Z,88.12
2023-02-11T21:58:57.809Z,88.14
2023-02-11T22:01:28.816Z,87.85
2023-02-11T22:03:56.775Z,87.85
2023-02-11T22:06:27.778Z,87.95
2023-02-11T22:08:55.424Z,88.06
2023-02-11T22:11:23.521Z,88.13
2023-02-11T22:13:55.716Z,88.09
2023-02-11T22:16:23.128Z,88.15
2023-02-11T22:18:50.010Z,87.87
2023-02-11T22:21:21.056Z,87.91
2023-02-11T22:23:48.728Z,87.91
2023-02-11T22:26:19.939Z,88.10
2023-02-11T22:28:47.113Z,87.98
2023-02-11T22:31:27.027Z,88.03
2023-02-11T22:33:54.311Z,88.20
2023-02-11T22:36:35.774Z,88.05
2023-02-11T22:39:13.951Z,88.10
2023-02-11T22:41:42.922Z,87.97
2023-02-11T22:44:10.730Z,88.22
2023-02-11T22:46:38.799Z,88.16
2023-02-11T22:49:07.767Z,88.10
2023-02-11T22:51:34.817Z,88.35
2023-02-11T22:54:06.109Z,88.13
2023-02-11T22:56:35.091Z,88.10
2023-02-11T22:59:06.170Z,88.19
2023-02-11T23:01:33.459Z,88.15
2023-02-11T23:04:03.296Z,88.33
2023-02-11T23:06:30.260Z,88.30
2023-02-11T23:08:57.295Z,88.27
2023-02-11T23:11:28.670Z,88.18
2023-02-11T23:13:56.052Z,88.25
2023-02-11T23:16:27.688Z,88.21
2023-02-11T23:18:59.779Z,88.42
2023-02-11T23:21:30.544Z,88.68
2023-02-11T23:24:07.211Z,88.45
2023-02-11T23:26:34.514Z,88.62
2023-02-11T23:29:01.430Z,88.87
2023-02-11T23:31:31.666Z,88.53
2023-02-11T23:33:58.536Z,88.60
2023-02-11T23:36:25.383Z,88.70
2023-02-11T23:38:52.846Z,88.81
2023-02-11T23:41:20.997Z,88.70
2023-02-11T23:43:57.291Z,88.86
2023-02-11T23:46:26.222Z,88.86
2023-02-11T23:48:53.569Z,89.04
2023-02-11T23:51:21.737Z,88.69
2023-02-11T23:53:49.839Z,88.78
2023-02-11T23:56:24.339Z,88.66
2023-02-11T23:58:54.063Z,88.74
